sensor_id;sensor_type;location;lat;lon;timestamp;pressure;altitude;pressure_sealevel;temperature;humidity
60642;BME280;46837;52.446;-1.930;2022-10-29T00:00:09;100334.87;;;13.39;81.51
60642;BME280;46837;52.446;-1.930;2022-10-29T00:01:09;100333.15;;;13.31;81.70
60642;BME280;46837;52.446;-1.930;2022-10-29T00:02:09;100329.68;;;13.35;81.80
60642;BME280;46837;52.446;-1.930;2022-10-29T00:03:09;100329.23;;;13.34;81.74
60642;BME280;46837;52.446;-1.930;2022-10-29T00:04:09;100324.32;;;13.33;81.79
60642;BME280;46837;52.446;-1.930;2022-10-29T00:05:09;100322.69;;;13.30;82.03
60642;BME280;46837;52.446;-1.930;2022-10-29T00:06:10;100321.24;;;13.32;81.98
60642;BME280;46837;52.446;-1.930;2022-10-29T00:07:09;100319.38;;;13.31;82.08
60642;BME280;46837;52.446;-1.930;2022-10-29T00:08:09;100320.01;;;13.35;81.98
60642;BME280;46837;52.446;-1.930;2022-10-29T00:09:09;100317.16;;;13.35;81.95
60642;BME280;46837;52.446;-1.930;2022-10-29T00:10:09;100317.03;;;13.38;81.94
60642;BME280;46837;52.446;-1.930;2022-10-29T00:11:10;100322.19;;;13.38;81.93
60642;BME280;46837;52.446;-1.930;2022-10-29T00:12:09;100321.24;;;13.31;82.25
60642;BME280;46837;52.446;-1.930;2022-10-29T00:13:09;100326.18;;;13.34;82.21
60642;BME280;46837;52.446;-1.930;2022-10-29T00:14:09;100327.86;;;13.35;82.08
60642;BME280;46837;52.446;-1.930;2022-10-29T00:15:09;100327.59;;;13.36;82.05
60642;BME280;46837;52.446;-1.930;2022-10-29T00:16:14;100324.57;;;13.37;82.01
60642;BME280;46837;52.446;-1.930;2022-10-29T00:17:09;100325.17;;;13.36;82.01
60642;BME280;46837;52.446;-1.930;2022-10-29T00:18:09;100328.08;;;13.34;82.19
60642;BME280;46837;52.446;-1.930;2022-10-29T00:19:09;100330.02;;;13.33;82.17
60642;BME280;46837;52.446;-1.930;2022-10-29T00:20:09;100322.69;;;13.28;82.45
60642;BME280;46837;52.446;-1.930;2022-10-29T00:21:13;100319.54;;;13.31;82.49
60642;BME280;46837;52.446;-1.930;2022-10-29T00:22:09;100316.10;;;13.28;82.43
60642;BME280;46837;52.446;-1.930;2022-10-29T00:23:09;100317.84;;;13.33;82.41
60642;BME280;46837;52.446;-1.930;2022-10-29T00:24:09;100323.01;;;13.37;82.12
60642;BME280;46837;52.446;-1.930;2022-10-29T00:25:09;100326.89;;;13.41;81.92
60642;BME280;46837;52.446;-1.930;2022-10-29T00:26:09;100325.59;;;13.40;81.83
60642;BME280;46837;52.446;-1.930;2022-10-29T00:27:09;100320.43;;;13.39;81.90
60642;BME280;46837;52.446;-1.930;2022-10-29T00:28:09;100317.08;;;13.37;81.97
60642;BME280;46837;52.446;-1.930;2022-10-29T00:29:09;100314.06;;;13.41;81.86
60642;BME280;46837;52.446;-1.930;2022-10-29T00:30:09;100310.93;;;13.40;81.85
60642;BME280;46837;52.446;-1.930;2022-10-29T00:31:16;100310.20;;;13.41;81.87
60642;BME280;46837;52.446;-1.930;2022-10-29T00:32:09;100308.83;;;13.43;81.76
60642;BME280;46837;52.446;-1.930;2022-10-29T00:33:09;100308.33;;;13.42;81.74
60642;BME280;46837;52.446;-1.930;2022-10-29T00:34:09;100307.25;;;13.40;81.97
60642;BME280;46837;52.446;-1.930;2022-10-29T00:35:09;100306.00;;;13.45;81.81
60642;BME280;46837;52.446;-1.930;2022-10-29T00:36:14;100304.08;;;13.47;81.58
60642;BME280;46837;52.446;-1.930;2022-10-29T00:37:09;100303.04;;;13.45;81.62
60642;BME280;46837;52.446;-1.930;2022-10-29T00:38:09;100301.61;;;13.47;81.69
60642;BME280;46837;52.446;-1.930;2022-10-29T00:39:12;100302.00;;;13.52;81.49
60642;BME280;46837;52.446;-1.930;2022-10-29T00:40:09;100307.55;;;13.54;81.34
60642;BME280;46837;52.446;-1.930;2022-10-29T00:41:12;100303.07;;;13.57;81.25
60642;BME280;46837;52.446;-1.930;2022-10-29T00:42:15;100298.66;;;13.60;81.08
60642;BME280;46837;52.446;-1.930;2022-10-29T00:43:14;100297.47;;;13.58;81.00
60642;BME280;46837;52.446;-1.930;2022-10-29T00:46:15;100291.14;;;13.59;81.03
60642;BME280;46837;52.446;-1.930;2022-10-29T00:48:09;100293.09;;;13.63;80.93
60642;BME280;46837;52.446;-1.930;2022-10-29T00:49:09;100286.80;;;13.66;80.83
60642;BME280;46837;52.446;-1.930;2022-10-29T00:50:11;100284.16;;;13.61;80.90
60642;BME280;46837;52.446;-1.930;2022-10-29T00:51:09;100281.91;;;13.58;81.01
60642;BME280;46837;52.446;-1.930;2022-10-29T00:52:09;100280.75;;;13.54;81.23
60642;BME280;46837;52.446;-1.930;2022-10-29T00:53:09;100281.14;;;13.54;81.33
60642;BME280;46837;52.446;-1.930;2022-10-29T00:54:09;100278.64;;;13.56;81.30
60642;BME280;46837;52.446;-1.930;2022-10-29T00:55:09;100278.37;;;13.57;81.20
60642;BME280;46837;52.446;-1.930;2022-10-29T00:56:09;100279.19;;;13.55;81.17
60642;BME280;46837;52.446;-1.930;2022-10-29T00:57:13;100275.35;;;13.56;81.24
60642;BME280;46837;52.446;-1.930;2022-10-29T00:58:10;100271.78;;;13.58;81.08
60642;BME280;46837;52.446;-1.930;2022-10-29T00:59:09;100268.73;;;13.58;81.01
60642;BME280;46837;52.446;-1.930;2022-10-29T01:00:09;100268.87;;;13.56;81.14
60642;BME280;46837;52.446;-1.930;2022-10-29T01:01:09;100270.63;;;13.56;81.21
60642;BME280;46837;52.446;-1.930;2022-10-29T01:02:09;100272.82;;;13.56;81.28
60642;BME280;46837;52.446;-1.930;2022-10-29T01:03:09;100280.01;;;13.58;81.18
60642;BME280;46837;52.446;-1.930;2022-10-29T01:04:09;100279.05;;;13.59;81.16
60642;BME280;46837;52.446;-1.930;2022-10-29T01:05:09;100281.00;;;13.56;81.25
60642;BME280;46837;52.446;-1.930;2022-10-29T01:06:09;100281.99;;;13.58;81.22
60642;BME280;46837;52.446;-1.930;2022-10-29T01:07:09;100278.14;;;13.58;81.09
60642;BME280;46837;52.446;-1.930;2022-10-29T01:08:09;100278.39;;;13.60;81.08
60642;BME280;46837;52.446;-1.930;2022-10-29T01:09:09;100277.65;;;13.57;80.99
60642;BME280;46837;52.446;-1.930;2022-10-29T01:10:09;100271.61;;;13.50;81.15
60642;BME280;46837;52.446;-1.930;2022-10-29T01:12:22;100273.14;;;13.43;81.36
60642;BME280;46837;52.446;-1.930;2022-10-29T01:18:19;100261.37;;;13.38;81.70
60642;BME280;46837;52.446;-1.930;2022-10-29T01:19:20;100258.21;;;13.37;81.56
60642;BME280;46837;52.446;-1.930;2022-10-29T01:22:18;100251.51;;;13.36;81.65
60642;BME280;46837;52.446;-1.930;2022-10-29T01:30:17;100245.81;;;13.44;81.43
60642;BME280;46837;52.446;-1.930;2022-10-29T01:32:11;100242.65;;;13.52;81.19
60642;BME280;46837;52.446;-1.930;2022-10-29T01:33:20;100240.64;;;13.50;81.05
60642;BME280;46837;52.446;-1.930;2022-10-29T01:34:17;100243.53;;;13.47;81.34
60642;BME280;46837;52.446;-1.930;2022-10-29T01:35:16;100248.41;;;13.47;81.35
60642;BME280;46837;52.446;-1.930;2022-10-29T01:36:22;100250.86;;;13.43;81.39
60642;BME280;46837;52.446;-1.930;2022-10-29T01:37:18;100252.42;;;13.39;81.73
60642;BME280;46837;52.446;-1.930;2022-10-29T01:40:16;100251.41;;;13.42;81.62
60642;BME280;46837;52.446;-1.930;2022-10-29T01:41:18;100253.88;;;13.43;81.54
60642;BME280;46837;52.446;-1.930;2022-10-29T01:42:14;100257.00;;;13.34;81.88
60642;BME280;46837;52.446;-1.930;2022-10-29T01:43:14;100259.39;;;13.30;82.09
60642;BME280;46837;52.446;-1.930;2022-10-29T01:46:16;100255.52;;;13.27;82.29
60642;BME280;46837;52.446;-1.930;2022-10-29T01:47:14;100256.26;;;13.32;82.24
60642;BME280;46837;52.446;-1.930;2022-10-29T01:48:14;100249.32;;;13.34;82.08
60642;BME280;46837;52.446;-1.930;2022-10-29T01:49:13;100247.09;;;13.40;81.85
60642;BME280;46837;52.446;-1.930;2022-10-29T01:50:10;100247.04;;;13.32;82.01
60642;BME280;46837;52.446;-1.930;2022-10-29T01:51:12;100238.55;;;13.28;82.24
60642;BME280;46837;52.446;-1.930;2022-10-29T01:52:11;100231.38;;;13.23;82.60
60642;BME280;46837;52.446;-1.930;2022-10-29T01:53:09;100227.76;;;13.23;82.61
60642;BME280;46837;52.446;-1.930;2022-10-29T01:54:09;100231.70;;;13.16;82.92
60642;BME280;46837;52.446;-1.930;2022-10-29T01:55:09;100233.27;;;13.19;82.82
60642;BME280;46837;52.446;-1.930;2022-10-29T01:56:09;100233.52;;;13.22;82.63
60642;BME280;46837;52.446;-1.930;2022-10-29T01:58:09;100220.98;;;13.18;82.95
60642;BME280;46837;52.446;-1.930;2022-10-29T01:59:09;100216.95;;;13.23;82.92
60642;BME280;46837;52.446;-1.930;2022-10-29T02:00:13;100214.61;;;13.18;82.85
60642;BME280;46837;52.446;-1.930;2022-10-29T02:01:21;100211.86;;;13.11;83.39
60642;BME280;46837;52.446;-1.930;2022-10-29T02:02:16;100217.52;;;13.17;83.08
60642;BME280;46837;52.446;-1.930;2022-10-29T02:05:21;100216.56;;;13.22;82.83
60642;BME280;46837;52.446;-1.930;2022-10-29T02:09:14;100222.46;;;13.18;83.08
60642;BME280;46837;52.446;-1.930;2022-10-29T02:10:15;100225.59;;;13.17;83.30
60642;BME280;46837;52.446;-1.930;2022-10-29T02:11:57;100226.96;;;13.19;83.21
60642;BME280;46837;52.446;-1.930;2022-10-29T02:12:16;100229.48;;;13.18;83.33
60642;BME280;46837;52.446;-1.930;2022-10-29T02:13:09;100228.16;;;13.19;83.28
60642;BME280;46837;52.446;-1.930;2022-10-29T02:14:16;100231.27;;;13.22;83.27
60642;BME280;46837;52.446;-1.930;2022-10-29T02:15:22;100230.47;;;13.17;83.25
60642;BME280;46837;52.446;-1.930;2022-10-29T02:16:09;100234.80;;;13.19;83.31
60642;BME280;46837;52.446;-1.930;2022-10-29T02:17:09;100238.81;;;13.17;83.30
60642;BME280;46837;52.446;-1.930;2022-10-29T02:18:09;100244.16;;;13.20;83.29
60642;BME280;46837;52.446;-1.930;2022-10-29T02:19:09;100241.91;;;13.15;83.44
60642;BME280;46837;52.446;-1.930;2022-10-29T02:20:09;100241.94;;;13.17;83.66
60642;BME280;46837;52.446;-1.930;2022-10-29T02:21:09;100235.44;;;13.20;83.38
60642;BME280;46837;52.446;-1.930;2022-10-29T02:22:09;100235.00;;;13.22;83.35
60642;BME280;46837;52.446;-1.930;2022-10-29T02:23:09;100231.66;;;13.22;83.33
60642;BME280;46837;52.446;-1.930;2022-10-29T02:24:09;100230.90;;;13.25;83.30
60642;BME280;46837;52.446;-1.930;2022-10-29T02:25:09;100229.69;;;13.26;83.30
60642;BME280;46837;52.446;-1.930;2022-10-29T02:26:09;100234.60;;;13.29;83.18
60642;BME280;46837;52.446;-1.930;2022-10-29T02:27:09;100230.95;;;13.26;83.25
60642;BME280;46837;52.446;-1.930;2022-10-29T02:28:09;100229.94;;;13.28;83.28
60642;BME280;46837;52.446;-1.930;2022-10-29T02:29:09;100228.73;;;13.30;83.19
60642;BME280;46837;52.446;-1.930;2022-10-29T02:30:09;100228.81;;;13.33;83.07
60642;BME280;46837;52.446;-1.930;2022-10-29T02:31:09;100226.54;;;13.28;83.16
60642;BME280;46837;52.446;-1.930;2022-10-29T02:32:09;100225.96;;;13.25;83.30
60642;BME280;46837;52.446;-1.930;2022-10-29T02:33:09;100219.58;;;13.23;83.45
60642;BME280;46837;52.446;-1.930;2022-10-29T02:34:09;100211.07;;;13.22;83.53
60642;BME280;46837;52.446;-1.930;2022-10-29T02:35:09;100202.32;;;13.19;83.62
60642;BME280;46837;52.446;-1.930;2022-10-29T02:36:09;100196.29;;;13.17;83.66
60642;BME280;46837;52.446;-1.930;2022-10-29T02:37:09;100189.92;;;13.12;84.04
60642;BME280;46837;52.446;-1.930;2022-10-29T02:38:09;100186.49;;;13.14;83.87
60642;BME280;46837;52.446;-1.930;2022-10-29T02:39:09;100186.16;;;13.08;84.07
60642;BME280;46837;52.446;-1.930;2022-10-29T02:40:09;100188.10;;;13.03;84.46
60642;BME280;46837;52.446;-1.930;2022-10-29T02:41:09;100190.02;;;13.04;84.58
60642;BME280;46837;52.446;-1.930;2022-10-29T02:42:09;100192.36;;;13.08;84.41
60642;BME280;46837;52.446;-1.930;2022-10-29T02:43:09;100188.24;;;13.06;84.34
60642;BME280;46837;52.446;-1.930;2022-10-29T02:44:09;100187.31;;;13.08;84.34
60642;BME280;46837;52.446;-1.930;2022-10-29T02:45:09;100182.56;;;13.03;84.54
60642;BME280;46837;52.446;-1.930;2022-10-29T02:46:15;100181.82;;;13.07;84.67
60642;BME280;46837;52.446;-1.930;2022-10-29T02:47:09;100185.55;;;13.07;84.60
60642;BME280;46837;52.446;-1.930;2022-10-29T02:48:09;100191.05;;;13.13;84.41
60642;BME280;46837;52.446;-1.930;2022-10-29T02:49:09;100194.28;;;13.15;84.26
60642;BME280;46837;52.446;-1.930;2022-10-29T02:50:09;100189.78;;;13.15;84.19
60642;BME280;46837;52.446;-1.930;2022-10-29T02:51:09;100190.75;;;13.17;84.14
60642;BME280;46837;52.446;-1.930;2022-10-29T02:52:09;100187.75;;;13.14;84.22
60642;BME280;46837;52.446;-1.930;2022-10-29T02:53:09;100192.29;;;13.16;84.41
60642;BME280;46837;52.446;-1.930;2022-10-29T02:54:09;100188.53;;;13.20;84.09
60642;BME280;46837;52.446;-1.930;2022-10-29T02:55:09;100182.98;;;13.21;84.10
60642;BME280;46837;52.446;-1.930;2022-10-29T02:56:09;100174.31;;;13.22;84.00
60642;BME280;46837;52.446;-1.930;2022-10-29T02:57:09;100169.73;;;13.16;84.29
60642;BME280;46837;52.446;-1.930;2022-10-29T02:58:09;100160.98;;;13.13;84.54
60642;BME280;46837;52.446;-1.930;2022-10-29T02:59:09;100159.30;;;13.09;84.66
60642;BME280;46837;52.446;-1.930;2022-10-29T03:00:09;100157.85;;;13.16;84.51
60642;BME280;46837;52.446;-1.930;2022-10-29T03:01:09;100159.69;;;13.17;84.39
60642;BME280;46837;52.446;-1.930;2022-10-29T03:02:09;100158.75;;;13.18;84.25
60642;BME280;46837;52.446;-1.930;2022-10-29T03:03:09;100161.50;;;13.04;84.87
60642;BME280;46837;52.446;-1.930;2022-10-29T03:04:09;100157.24;;;13.01;85.02
60642;BME280;46837;52.446;-1.930;2022-10-29T03:05:09;100157.40;;;13.02;85.15
60642;BME280;46837;52.446;-1.930;2022-10-29T03:06:13;100147.23;;;13.03;85.21
60642;BME280;46837;52.446;-1.930;2022-10-29T03:07:09;100142.90;;;13.04;85.19
60642;BME280;46837;52.446;-1.930;2022-10-29T03:08:09;100141.75;;;13.04;85.22
60642;BME280;46837;52.446;-1.930;2022-10-29T03:09:09;100142.65;;;12.99;85.22
60642;BME280;46837;52.446;-1.930;2022-10-29T03:10:09;100140.89;;;13.00;85.42
60642;BME280;46837;52.446;-1.930;2022-10-29T03:11:09;100137.87;;;12.94;85.43
60642;BME280;46837;52.446;-1.930;2022-10-29T03:12:09;100138.31;;;12.92;85.85
60642;BME280;46837;52.446;-1.930;2022-10-29T03:13:09;100134.86;;;12.92;85.75
60642;BME280;46837;52.446;-1.930;2022-10-29T03:14:09;100129.02;;;12.95;85.83
60642;BME280;46837;52.446;-1.930;2022-10-29T03:15:09;100127.54;;;12.97;85.72
60642;BME280;46837;52.446;-1.930;2022-10-29T03:16:09;100124.16;;;13.00;85.49
60642;BME280;46837;52.446;-1.930;2022-10-29T03:17:09;100126.22;;;13.05;85.32
60642;BME280;46837;52.446;-1.930;2022-10-29T03:18:09;100124.11;;;13.08;85.09
60642;BME280;46837;52.446;-1.930;2022-10-29T03:19:09;100115.20;;;12.97;85.36
60642;BME280;46837;52.446;-1.930;2022-10-29T03:20:09;100110.48;;;13.03;85.48
60642;BME280;46837;52.446;-1.930;2022-10-29T03:21:09;100102.74;;;13.05;85.29
60642;BME280;46837;52.446;-1.930;2022-10-29T03:22:09;100097.94;;;13.07;85.04
60642;BME280;46837;52.446;-1.930;2022-10-29T03:23:09;100092.67;;;13.08;84.91
60642;BME280;46837;52.446;-1.930;2022-10-29T03:24:09;100091.61;;;12.98;85.29
60642;BME280;46837;52.446;-1.930;2022-10-29T03:25:09;100087.08;;;13.00;85.53
60642;BME280;46837;52.446;-1.930;2022-10-29T03:26:09;100086.34;;;13.03;85.43
60642;BME280;46837;52.446;-1.930;2022-10-29T03:27:09;100081.57;;;12.98;85.38
60642;BME280;46837;52.446;-1.930;2022-10-29T03:28:09;100082.12;;;12.95;85.68
60642;BME280;46837;52.446;-1.930;2022-10-29T03:29:09;100077.71;;;12.93;85.64
60642;BME280;46837;52.446;-1.930;2022-10-29T03:30:09;100079.49;;;12.89;85.85
60642;BME280;46837;52.446;-1.930;2022-10-29T03:31:09;100079.68;;;12.85;86.21
60642;BME280;46837;52.446;-1.930;2022-10-29T03:32:09;100079.36;;;12.85;86.25
60642;BME280;46837;52.446;-1.930;2022-10-29T03:33:09;100080.72;;;12.87;86.12
60642;BME280;46837;52.446;-1.930;2022-10-29T03:34:09;100077.07;;;12.89;85.97
60642;BME280;46837;52.446;-1.930;2022-10-29T03:35:09;100076.45;;;12.93;85.88
60642;BME280;46837;52.446;-1.930;2022-10-29T03:36:09;100078.22;;;12.92;85.84
60642;BME280;46837;52.446;-1.930;2022-10-29T03:37:09;100075.62;;;12.94;85.87
60642;BME280;46837;52.446;-1.930;2022-10-29T03:38:09;100071.62;;;12.93;85.75
60642;BME280;46837;52.446;-1.930;2022-10-29T03:39:09;100068.05;;;12.93;85.81
60642;BME280;46837;52.446;-1.930;2022-10-29T03:40:09;100064.40;;;12.96;85.84
60642;BME280;46837;52.446;-1.930;2022-10-29T03:41:12;100060.01;;;12.97;85.86
60642;BME280;46837;52.446;-1.930;2022-10-29T03:42:09;100064.95;;;12.97;85.76
60642;BME280;46837;52.446;-1.930;2022-10-29T03:43:09;100063.22;;;13.00;85.64
60642;BME280;46837;52.446;-1.930;2022-10-29T03:44:09;100059.62;;;13.03;85.53
60642;BME280;46837;52.446;-1.930;2022-10-29T03:45:09;100057.48;;;13.03;85.52
60642;BME280;46837;52.446;-1.930;2022-10-29T03:46:09;100052.11;;;13.04;85.61
60642;BME280;46837;52.446;-1.930;2022-10-29T03:47:09;100051.07;;;13.04;85.42
60642;BME280;46837;52.446;-1.930;2022-10-29T03:48:09;100045.83;;;12.99;85.71
60642;BME280;46837;52.446;-1.930;2022-10-29T03:49:09;100050.91;;;12.96;85.87
60642;BME280;46837;52.446;-1.930;2022-10-29T03:50:09;100047.01;;;12.98;86.00
60642;BME280;46837;52.446;-1.930;2022-10-29T03:51:09;100046.61;;;12.93;86.06
60642;BME280;46837;52.446;-1.930;2022-10-29T03:52:09;100047.06;;;12.98;86.07
60642;BME280;46837;52.446;-1.930;2022-10-29T03:53:09;100046.18;;;13.03;85.78
60642;BME280;46837;52.446;-1.930;2022-10-29T03:54:09;100039.96;;;13.01;85.73
60642;BME280;46837;52.446;-1.930;2022-10-29T03:55:09;100038.12;;;13.03;85.96
60642;BME280;46837;52.446;-1.930;2022-10-29T03:56:09;100040.15;;;13.03;85.77
60642;BME280;46837;52.446;-1.930;2022-10-29T03:57:09;100031.05;;;13.03;85.73
60642;BME280;46837;52.446;-1.930;2022-10-29T03:58:09;100031.07;;;13.01;85.93
60642;BME280;46837;52.446;-1.930;2022-10-29T03:59:09;100027.56;;;13.02;85.99
60642;BME280;46837;52.446;-1.930;2022-10-29T04:00:09;100027.28;;;13.06;85.95
60642;BME280;46837;52.446;-1.930;2022-10-29T04:01:09;100026.87;;;13.09;85.66
60642;BME280;46837;52.446;-1.930;2022-10-29T04:02:09;100024.01;;;13.10;85.58
60642;BME280;46837;52.446;-1.930;2022-10-29T04:03:09;100024.30;;;13.14;85.59
60642;BME280;46837;52.446;-1.930;2022-10-29T04:04:09;100025.89;;;13.16;85.39
60642;BME280;46837;52.446;-1.930;2022-10-29T04:05:09;100023.17;;;13.06;85.66
60642;BME280;46837;52.446;-1.930;2022-10-29T04:06:12;100022.86;;;13.05;86.02
60642;BME280;46837;52.446;-1.930;2022-10-29T04:07:09;100018.29;;;13.06;85.93
60642;BME280;46837;52.446;-1.930;2022-10-29T04:08:09;100018.51;;;13.01;86.41
60642;BME280;46837;52.446;-1.930;2022-10-29T04:09:09;100016.87;;;12.99;86.38
60642;BME280;46837;52.446;-1.930;2022-10-29T04:10:09;100018.43;;;13.03;86.21
60642;BME280;46837;52.446;-1.930;2022-10-29T04:11:13;100009.98;;;12.85;86.81
60642;BME280;46837;52.446;-1.930;2022-10-29T04:12:09;100009.54;;;12.86;87.20
60642;BME280;46837;52.446;-1.930;2022-10-29T04:13:09;100007.70;;;12.84;87.23
60642;BME280;46837;52.446;-1.930;2022-10-29T04:14:09;100003.84;;;12.85;87.10
60642;BME280;46837;52.446;-1.930;2022-10-29T04:15:09;100002.92;;;12.90;86.99
60642;BME280;46837;52.446;-1.930;2022-10-29T04:16:09;100002.15;;;12.91;86.93
60642;BME280;46837;52.446;-1.930;2022-10-29T04:17:09;100000.98;;;12.88;87.00
60642;BME280;46837;52.446;-1.930;2022-10-29T04:18:09;99999.91;;;12.91;86.95
60642;BME280;46837;52.446;-1.930;2022-10-29T04:19:09;100001.14;;;12.92;86.92
60642;BME280;46837;52.446;-1.930;2022-10-29T04:20:09;99999.99;;;12.92;86.83
60642;BME280;46837;52.446;-1.930;2022-10-29T04:21:09;100002.37;;;12.97;86.77
60642;BME280;46837;52.446;-1.930;2022-10-29T04:22:09;100003.28;;;12.92;
60642;BME280;46837;52.446;-1.930;2022-10-29T04:23:09;100001.77;;;12.96;87.02
60642;BME280;46837;52.446;-1.930;2022-10-29T04:24:09;100002.44;;;13.00;86.76
60642;BME280;46837;52.446;-1.930;2022-10-29T04:25:09;100003.45;;;13.04;86.65
60642;BME280;46837;52.446;-1.930;2022-10-29T04:26:09;100005.82;;;12.96;86.90
60642;BME280;46837;52.446;-1.930;2022-10-29T04:27:09;100003.98;;;13.00;86.91
60642;BME280;46837;52.446;-1.930;2022-10-29T04:28:09;100000.70;;;12.93;87.03
60642;BME280;46837;52.446;-1.930;2022-10-29T04:29:09;100003.18;;;12.86;87.58
60642;BME280;46837;52.446;-1.930;2022-10-29T04:30:09;100003.40;;;12.80;87.91
60642;BME280;46837;52.446;-1.930;2022-10-29T04:31:10;99999.42;;;12.84;87.93
60642;BME280;46837;52.446;-1.930;2022-10-29T04:32:09;99991.59;;;12.81;88.21
60642;BME280;46837;52.446;-1.930;2022-10-29T04:33:09;99989.45;;;12.82;88.04
60642;BME280;46837;52.446;-1.930;2022-10-29T04:34:09;99985.33;;;12.83;87.98
60642;BME280;46837;52.446;-1.930;2022-10-29T04:35:09;99981.60;;;12.83;88.20
60642;BME280;46837;52.446;-1.930;2022-10-29T04:36:09;99977.60;;;12.83;87.94
60642;BME280;46837;52.446;-1.930;2022-10-29T04:37:09;99978.41;;;12.90;87.89
60642;BME280;46837;52.446;-1.930;2022-10-29T04:38:09;99973.75;;;12.91;87.62
60642;BME280;46837;52.446;-1.930;2022-10-29T04:39:09;99968.81;;;12.91;87.72
60642;BME280;46837;52.446;-1.930;2022-10-29T04:40:09;99967.49;;;12.91;87.82
60642;BME280;46837;52.446;-1.930;2022-10-29T04:41:09;99964.93;;;12.88;87.86
60642;BME280;46837;52.446;-1.930;2022-10-29T04:42:09;99960.05;;;12.84;88.10
60642;BME280;46837;52.446;-1.930;2022-10-29T04:43:09;99958.72;;;12.89;88.19
60642;BME280;46837;52.446;-1.930;2022-10-29T04:44:09;99958.41;;;12.93;87.84
60642;BME280;46837;52.446;-1.930;2022-10-29T04:45:09;99957.93;;;12.74;88.74
60642;BME280;46837;52.446;-1.930;2022-10-29T04:46:09;99961.43;;;12.81;89.01
60642;BME280;46837;52.446;-1.930;2022-10-29T04:47:09;99962.07;;;12.90;88.44
60642;BME280;46837;52.446;-1.930;2022-10-29T04:48:09;99963.41;;;12.92;88.16
60642;BME280;46837;52.446;-1.930;2022-10-29T04:49:09;99958.60;;;12.96;87.99
60642;BME280;46837;52.446;-1.930;2022-10-29T04:50:09;99959.00;;;13.00;87.85
60642;BME280;46837;52.446;-1.930;2022-10-29T04:51:17;99953.45;;;13.01;87.73
60642;BME280;46837;52.446;-1.930;2022-10-29T04:52:09;99950.84;;;12.95;87.94
60642;BME280;46837;52.446;-1.930;2022-10-29T04:53:09;99945.09;;;12.93;88.36
60642;BME280;46837;52.446;-1.930;2022-10-29T04:54:09;99941.52;;;12.94;88.34
60642;BME280;46837;52.446;-1.930;2022-10-29T04:55:09;99942.00;;;12.99;88.14
60642;BME280;46837;52.446;-1.930;2022-10-29T04:56:09;99941.91;;;12.81;88.63
60642;BME280;46837;52.446;-1.930;2022-10-29T04:57:09;99941.79;;;12.82;89.23
60642;BME280;46837;52.446;-1.930;2022-10-29T04:58:12;99941.12;;;12.89;88.88
60642;BME280;46837;52.446;-1.930;2022-10-29T04:59:09;99940.24;;;12.90;88.62
60642;BME280;46837;52.446;-1.930;2022-10-29T05:00:09;99939.19;;;12.92;88.77
60642;BME280;46837;52.446;-1.930;2022-10-29T05:01:09;99935.54;;;12.93;88.59
60642;BME280;46837;52.446;-1.930;2022-10-29T05:02:09;99931.11;;;12.88;89.00
60642;BME280;46837;52.446;-1.930;2022-10-29T05:03:09;99933.59;;;12.96;88.76
60642;BME280;46837;52.446;-1.930;2022-10-29T05:04:09;99935.80;;;12.99;88.40
60642;BME280;46837;52.446;-1.930;2022-10-29T05:05:09;99936.80;;;13.03;88.11
60642;BME280;46837;52.446;-1.930;2022-10-29T05:06:09;99941.70;;;13.06;88.04
60642;BME280;46837;52.446;-1.930;2022-10-29T05:07:09;99949.38;;;13.07;88.03
60642;BME280;46837;52.446;-1.930;2022-10-29T05:08:09;99954.39;;;12.99;88.51
60642;BME280;46837;52.446;-1.930;2022-10-29T05:09:09;99964.50;;;13.05;88.38
60642;BME280;46837;52.446;-1.930;2022-10-29T05:10:09;99975.18;;;13.11;88.14
60642;BME280;46837;52.446;-1.930;2022-10-29T05:11:09;99981.71;;;13.09;88.01
60642;BME280;46837;52.446;-1.930;2022-10-29T05:12:09;99977.92;;;13.12;87.98
60642;BME280;46837;52.446;-1.930;2022-10-29T05:13:10;99972.57;;;13.14;87.89
60642;BME280;46837;52.446;-1.930;2022-10-29T05:14:09;99964.61;;;13.15;87.90
60642;BME280;46837;52.446;-1.930;2022-10-29T05:15:09;99960.13;;;13.17;87.63
60642;BME280;46837;52.446;-1.930;2022-10-29T05:16:09;99959.01;;;13.16;87.87
60642;BME280;46837;52.446;-1.930;2022-10-29T05:17:09;99955.91;;;13.22;87.60
60642;BME280;46837;52.446;-1.930;2022-10-29T05:18:09;99949.50;;;13.24;87.34
60642;BME280;46837;52.446;-1.930;2022-10-29T05:19:09;99945.11;;;13.21;87.54
60642;BME280;46837;52.446;-1.930;2022-10-29T05:20:09;99943.60;;;13.13;87.79
60642;BME280;46837;52.446;-1.930;2022-10-29T05:21:09;99944.69;;;13.15;88.18
60642;BME280;46837;52.446;-1.930;2022-10-29T05:22:09;99943.11;;;13.19;87.90
60642;BME280;46837;52.446;-1.930;2022-10-29T05:23:09;99941.83;;;12.99;88.64
60642;BME280;46837;52.446;-1.930;2022-10-29T05:24:09;99940.64;;;13.03;89.22
60642;BME280;46837;52.446;-1.930;2022-10-29T05:25:09;99936.38;;;12.98;89.11
60642;BME280;46837;52.446;-1.930;2022-10-29T05:26:09;99940.59;;;12.94;89.66
60642;BME280;46837;52.446;-1.930;2022-10-29T05:27:09;99940.54;;;13.03;89.49
60642;BME280;46837;52.446;-1.930;2022-10-29T05:28:14;99939.27;;;13.05;88.93
60642;BME280;46837;52.446;-1.930;2022-10-29T05:29:09;99939.66;;;13.04;89.24
60642;BME280;46837;52.446;-1.930;2022-10-29T05:30:09;99934.04;;;13.10;88.87
60642;BME280;46837;52.446;-1.930;2022-10-29T05:31:09;99932.07;;;13.16;88.51
60642;BME280;46837;52.446;-1.930;2022-10-29T05:32:09;99920.46;;;13.18;88.19
60642;BME280;46837;52.446;-1.930;2022-10-29T05:33:09;99919.96;;;13.17;88.34
60642;BME280;46837;52.446;-1.930;2022-10-29T05:34:09;99908.82;;;13.19;88.40
60642;BME280;46837;52.446;-1.930;2022-10-29T05:35:09;99899.84;;;13.22;88.23
60642;BME280;46837;52.446;-1.930;2022-10-29T05:36:09;99893.96;;;13.22;88.05
60642;BME280;46837;52.446;-1.930;2022-10-29T05:37:09;99894.79;;;13.24;87.96
60642;BME280;46837;52.446;-1.930;2022-10-29T05:38:09;99895.34;;;13.24;87.94
60642;BME280;46837;52.446;-1.930;2022-10-29T05:39:09;99892.43;;;13.24;88.10